Etusivu
METAR-TAF:

METAR-TAF

Lentoasemat :

Middleton Field

Evergreen, Alabama, Yhdysvallat

Leveyspiiri: 31-25-08N, Pituuspiiri: 087-02-53W, korkeus merenpinnasta: 78 m

Tämänhetkinen sää

Tämä raportti tehtiin 20 minuuttia sitten, kello 08.53 UTC
tyyntä
Lämpötila 2°C
Kosteus 80%
Ilmanpaine 1031 hPa
Näkyvyys: 16.1 km
selkeää

METAR: KGZH 080853Z AUTO 00000KT 10SM CLR 02/M01 A3045 RMK AO2 SLP310 T00171011 50002

Aika: 03:13 (09:13 UTC)


TAF: puuttuu

Säähavainnot ja -ennusteet yli 4000 lentoasemalta (METAR- ja TAF-raportit).

Käytössä olevat sääasemat on merkitty karttaan keltaisilla ja punaisilla pisteillä.

Aseta hiiri pisteen päälle nähdäksesi sääaseman nimen.

Klikkaa sitten nähdäksesi säähavainnot ja -ennusteet.

Kartan vaihtaminen: klikkaa mustalla rastilla varustettuja vihreitä pisteitä, niin voit zoomata sisään; viivalla varustettua vihreää pistettä, niin voit zoomata ulos tai vihreitä nuolia, niin pääset viereisille kartoille.


METAR-TAF: